createdAt,value
2023-02-05T00:00:27.085Z,4.10
2023-02-05T00:02:53.774Z,4.50
2023-02-05T00:05:20.416Z,5.25
2023-02-05T00:07:47.056Z,4.90
2023-02-05T00:10:13.752Z,5.38
2023-02-05T00:12:40.457Z,4.60
2023-02-05T00:15:07.640Z,4.32
2023-02-05T00:17:36.199Z,4.15
2023-02-05T00:20:03.963Z,4.95
2023-02-05T00:22:30.710Z,4.50
2023-02-05T00:24:57.331Z,5.15
2023-02-05T00:27:24.118Z,4.85
2023-02-05T00:29:50.762Z,5.22
2023-02-05T00:32:17.482Z,4.28
2023-02-05T00:34:44.126Z,4.88
2023-02-05T00:37:11.083Z,4.00
2023-02-05T00:39:37.786Z,4.43
2023-02-05T00:42:04.451Z,5.28
2023-02-05T00:44:31.205Z,4.70
2023-02-05T00:46:57.920Z,4.55
2023-02-05T00:49:24.562Z,4.38
2023-02-05T00:51:51.315Z,4.50
2023-02-05T00:54:18.020Z,4.22
2023-02-05T00:56:44.659Z,4.28
2023-02-05T00:59:11.333Z,5.32
2023-02-05T01:01:38.037Z,5.30
2023-02-05T01:04:04.757Z,4.63
2023-02-05T01:06:31.945Z,4.55
2023-02-05T01:08:58.628Z,5.30
2023-02-05T01:11:25.389Z,4.28
2023-02-05T01:13:52.111Z,4.57
2023-02-05T01:16:18.796Z,4.80
2023-02-05T01:18:45.512Z,4.95
2023-02-05T01:21:12.354Z,4.60
2023-02-05T01:23:39.043Z,4.63
2023-02-05T01:26:06.318Z,4.00
2023-02-05T01:28:32.992Z,5.28
2023-02-05T01:31:00.357Z,5.28
2023-02-05T01:33:27.084Z,4.40
2023-02-05T01:35:53.722Z,4.30
2023-02-05T01:38:20.372Z,4.80
2023-02-05T01:40:47.026Z,4.97
2023-02-05T01:43:16.809Z,4.90
2023-02-05T01:45:54.612Z,4.55
2023-02-05T01:48:27.443Z,4.53
2023-02-05T01:50:59.425Z,4.65
2023-02-05T01:53:30.098Z,4.47
2023-02-05T01:56:04.573Z,4.25
2023-02-05T01:58:35.812Z,4.50
2023-02-05T02:01:02.676Z,4.27
2023-02-05T02:03:31.639Z,4.03
2023-02-05T02:05:58.984Z,3.92
2023-02-05T02:08:26.226Z,3.97
2023-02-05T02:10:56.239Z,4.72
2023-02-05T02:13:25.692Z,4.10
2023-02-05T02:15:52.388Z,4.93
2023-02-05T02:18:28.949Z,4.85
2023-02-05T02:21:07.947Z,4.43
2023-02-05T02:23:57.099Z,4.32
2023-02-05T02:26:24.711Z,3.90
2023-02-05T02:28:57.406Z,4.40
2023-02-05T02:31:33.171Z,4.05
2023-02-05T02:34:11.684Z,3.85
2023-02-05T02:36:48.886Z,4.60
2023-02-05T02:39:41.832Z,4.07
2023-02-05T02:42:21.912Z,4.65
2023-02-05T02:44:59.073Z,4.20
2023-02-05T02:47:53.653Z,3.80
2023-02-05T02:50:35.534Z,4.45
2023-02-05T02:53:09.282Z,4.40
2023-02-05T02:55:41.774Z,4.13
2023-02-05T02:58:40.177Z,4.10
2023-02-05T03:01:10.065Z,4.47
2023-02-05T03:03:42.299Z,4.55
2023-02-05T03:08:49.684Z,4.47
2023-02-05T03:11:16.853Z,5.20
2023-02-05T03:13:45.033Z,4.28
2023-02-05T03:16:13.935Z,4.45
2023-02-05T03:18:41.281Z,4.90
2023-02-05T03:21:29.256Z,3.80
2023-02-05T03:23:56.423Z,3.97
2023-02-05T03:26:30.362Z,4.40
2023-02-05T03:29:17.291Z,4.32
2023-02-05T03:32:16.084Z,4.60
2023-02-05T03:35:21.708Z,4.63
2023-02-05T03:38:17.258Z,4.00
2023-02-05T03:41:07.121Z,3.97
2023-02-05T03:44:03.474Z,4.25
2023-02-05T03:46:47.618Z,4.47
2023-02-05T03:49:40.263Z,4.95
2023-02-05T03:55:02.897Z,4.15
2023-02-05T03:57:40.198Z,5.15
2023-02-05T04:00:08.294Z,4.80
2023-02-05T04:02:40.884Z,4.68
2023-02-05T04:05:09.803Z,4.72
2023-02-05T04:07:38.155Z,4.78
2023-02-05T04:10:05.489Z,5.65
2023-02-05T04:12:34.675Z,3.83
2023-02-05T04:15:01.580Z,4.80
2023-02-05T04:17:28.512Z,4.57
2023-02-05T04:19:55.427Z,4.40
2023-02-05T04:22:22.248Z,4.30
2023-02-05T04:24:49.000Z,3.83
2023-02-05T04:27:16.853Z,4.38
2023-02-05T04:29:43.519Z,4.28
2023-02-05T04:32:10.604Z,4.05
2023-02-05T04:34:37.378Z,4.00
2023-02-05T04:37:06.499Z,4.88
2023-02-05T04:39:33.430Z,3.83
2023-02-05T04:42:01.726Z,4.03
2023-02-05T04:44:28.708Z,4.55
2023-02-05T04:46:55.386Z,3.85
2023-02-05T04:49:22.118Z,3.47
2023-02-05T04:51:48.768Z,3.45
2023-02-05T04:54:15.483Z,3.38
2023-02-05T04:56:42.124Z,3.67
2023-02-05T04:59:08.798Z,4.32
2023-02-05T05:01:35.536Z,4.05
2023-02-05T05:04:02.285Z,3.60
2023-02-05T05:06:28.967Z,4.20
2023-02-05T05:08:55.637Z,4.40
2023-02-05T05:11:22.309Z,3.63
2023-02-05T05:13:52.163Z,4.07
2023-02-05T05:16:19.297Z,3.88
2023-02-05T05:18:46.444Z,3.85
2023-02-05T05:21:13.460Z,3.72
2023-02-05T05:23:40.108Z,4.07
2023-02-05T05:26:08.705Z,4.60
2023-02-05T05:28:36.682Z,3.97
2023-02-05T05:31:24.469Z,4.00
2023-02-05T05:33:51.413Z,4.20
2023-02-05T05:36:18.636Z,4.40
2023-02-05T05:38:45.468Z,4.25
2023-02-05T05:41:54.853Z,3.72
2023-02-05T05:44:21.534Z,3.97
2023-02-05T05:46:48.162Z,4.40
2023-02-05T05:49:14.808Z,4.32
2023-02-05T05:51:41.486Z,4.72
2023-02-05T05:54:08.218Z,4.05
2023-02-05T05:56:36.138Z,4.25
2023-02-05T05:59:03.018Z,3.35
2023-02-05T06:01:29.740Z,3.97
2023-02-05T06:03:56.438Z,4.10
2023-02-05T06:06:23.154Z,4.00
2023-02-05T06:08:49.820Z,4.47
2023-02-05T06:11:16.509Z,4.50
2023-02-05T06:13:43.281Z,4.45
2023-02-05T06:16:10.064Z,4.20
2023-02-05T06:18:36.813Z,4.82
2023-02-05T06:21:05.748Z,4.35
2023-02-05T06:23:34.059Z,4.55
2023-02-05T06:26:00.874Z,4.13
2023-02-05T06:28:27.528Z,4.00
2023-02-05T06:30:54.264Z,4.85
2023-02-05T06:33:21.016Z,4.00
2023-02-05T06:35:47.770Z,4.03
2023-02-05T06:38:14.519Z,4.18
2023-02-05T06:40:41.487Z,4.18
2023-02-05T06:43:08.241Z,3.90
2023-02-05T06:45:35.229Z,4.07
2023-02-05T06:48:02.110Z,4.15
2023-02-05T06:50:28.857Z,4.35
2023-02-05T06:52:55.554Z,4.55
2023-02-05T06:55:22.269Z,3.28
2023-02-05T06:57:49.023Z,3.90
2023-02-05T07:00:16.693Z,4.47
2023-02-05T07:02:43.551Z,4.25
2023-02-05T07:05:10.418Z,3.78
2023-02-05T07:07:37.235Z,3.95
2023-02-05T07:10:04.407Z,3.70
2023-02-05T07:12:31.270Z,4.63
2023-02-05T07:14:57.946Z,4.28
2023-02-05T07:17:24.795Z,4.90
2023-02-05T07:19:51.510Z,4.30
2023-02-05T07:22:18.395Z,4.97
2023-02-05T07:24:45.115Z,5.22
2023-02-05T07:27:11.815Z,4.18
2023-02-05T07:29:38.449Z,3.72
2023-02-05T07:32:05.166Z,4.57
2023-02-05T07:34:31.898Z,3.75
2023-02-05T07:36:58.533Z,4.45
2023-02-05T07:39:25.274Z,4.45
2023-02-05T07:41:53.511Z,4.25
2023-02-05T07:44:28.132Z,4.45
2023-02-05T07:46:54.968Z,5.75
2023-02-05T07:49:22.011Z,4.75
2023-02-05T07:51:48.851Z,4.85
2023-02-05T07:54:15.697Z,6.05
2023-02-05T07:56:42.389Z,5.15
2023-02-05T07:59:09.331Z,4.50
2023-02-05T08:01:36.005Z,4.97
2023-02-05T08:04:02.761Z,5.05
2023-02-05T08:06:29.530Z,4.60
2023-02-05T08:08:56.890Z,4.85
2023-02-05T08:11:23.633Z,5.40
2023-02-05T08:13:50.415Z,5.15
2023-02-05T08:16:17.145Z,5.22
2023-02-05T08:18:48.757Z,4.80
2023-02-05T08:21:15.731Z,4.78
2023-02-05T08:23:42.494Z,5.57
2023-02-05T08:26:09.153Z,5.95
2023-02-05T08:28:35.869Z,5.85
2023-02-05T08:31:09.761Z,6.18
2023-02-05T08:33:36.430Z,5.35
2023-02-05T08:36:03.276Z,5.55
2023-02-05T08:38:29.954Z,5.60
2023-02-05T08:40:57.840Z,4.93
2023-02-05T08:43:24.738Z,5.00
2023-02-05T08:45:51.488Z,4.97
2023-02-05T08:48:18.415Z,5.35
2023-02-05T08:50:46.292Z,5.93
2023-02-05T08:53:13.103Z,5.57
2023-02-05T08:55:39.778Z,4.90
2023-02-05T08:58:06.465Z,5.53
2023-02-05T09:00:33.260Z,5.07
2023-02-05T09:02:59.946Z,4.85
2023-02-05T09:05:26.578Z,5.57
2023-02-05T09:07:53.257Z,5.30
2023-02-05T09:10:19.992Z,5.25
2023-02-05T09:12:48.230Z,5.10
2023-02-05T09:15:14.910Z,4.88
2023-02-05T09:17:41.626Z,5.55
2023-02-05T09:20:09.324Z,4.78
2023-02-05T09:22:36.059Z,5.05
2023-02-05T09:25:02.754Z,5.18
2023-02-05T09:27:30.403Z,4.47
2023-02-05T09:29:57.115Z,5.03
2023-02-05T09:32:24.486Z,5.57
2023-02-05T09:34:51.134Z,5.90
2023-02-05T09:37:18.082Z,5.88
2023-02-05T09:40:18.900Z,5.43
2023-02-05T09:42:38.456Z,5.80
2023-02-05T09:45:39.955Z,5.20
2023-02-05T09:48:38.170Z,5.67
2023-02-05T09:51:09.584Z,6.07
2023-02-05T09:53:42.788Z,6.05
2023-02-05T09:56:13.475Z,6.18
2023-02-05T09:58:47.653Z,7.57
2023-02-05T10:01:22.529Z,5.60
2023-02-05T10:03:59.137Z,6.32
2023-02-05T10:06:41.904Z,5.20
2023-02-05T10:09:24.455Z,6.70
2023-02-05T10:12:00.307Z,6.68
2023-02-05T10:15:09.442Z,5.05
2023-02-05T10:18:18.064Z,5.70
2023-02-05T10:20:52.291Z,5.90
2023-02-05T10:23:51.397Z,6.65
2023-02-05T10:26:18.146Z,6.30
2023-02-05T10:29:16.074Z,7.45
2023-02-05T10:32:09.988Z,6.70
2023-02-05T10:34:42.790Z,7.45
2023-02-05T10:37:18.418Z,7.00
2023-02-05T10:39:46.294Z,7.03
2023-02-05T10:42:26.652Z,7.50
2023-02-05T10:45:12.806Z,6.18
2023-02-05T10:47:59.364Z,7.82
2023-02-05T10:50:46.064Z,8.02
2023-02-05T10:53:16.496Z,9.18
2023-02-05T10:55:43.137Z,7.53
2023-02-05T10:58:43.993Z,8.13
2023-02-05T11:01:20.712Z,7.45
2023-02-05T11:04:00.367Z,8.77
2023-02-05T11:06:31.367Z,7.63
2023-02-05T11:08:58.053Z,8.48
2023-02-05T11:11:29.552Z,8.90
2023-02-05T11:14:02.378Z,9.27
2023-02-05T11:16:40.868Z,9.40
2023-02-05T11:19:20.220Z,8.82
2023-02-05T11:21:59.532Z,10.77
2023-02-05T11:24:36.162Z,9.02
2023-02-05T11:27:27.775Z,9.55
2023-02-05T11:29:56.856Z,9.70
2023-02-05T11:32:38.315Z,10.43
2023-02-05T11:35:09.975Z,8.60
2023-02-05T11:37:39.569Z,6.72
2023-02-05T11:40:17.381Z,7.03
2023-02-05T11:42:55.395Z,7.03
2023-02-05T11:45:23.552Z,8.13
2023-02-05T11:47:50.382Z,8.02
2023-02-05T11:50:24.144Z,9.02
2023-02-05T11:52:54.571Z,8.55
2023-02-05T11:55:53.539Z,9.35
2023-02-05T11:58:36.476Z,8.13
2023-02-05T12:01:21.692Z,8.40
2023-02-05T12:04:02.091Z,8.18
2023-02-05T12:06:38.395Z,10.00
2023-02-05T12:09:09.913Z,8.68
2023-02-05T12:12:37.715Z,8.63
2023-02-05T12:15:04.431Z,9.18
2023-02-05T12:17:56.781Z,10.32
2023-02-05T12:20:34.192Z,11.10
2023-02-05T12:23:24.555Z,9.60
2023-02-05T12:26:00.355Z,10.52
2023-02-05T12:28:42.080Z,10.10
2023-02-05T12:31:22.237Z,8.10
2023-02-05T12:34:36.218Z,8.55
2023-02-05T12:37:18.049Z,7.95
2023-02-05T12:40:30.006Z,8.20
2023-02-05T12:43:01.601Z,8.68
2023-02-05T12:45:45.911Z,8.43
2023-02-05T12:48:27.521Z,8.68
2023-02-05T12:51:01.554Z,8.38
2023-02-05T12:53:38.901Z,8.43
2023-02-05T12:56:24.150Z,7.57
2023-02-05T12:58:56.037Z,8.40
2023-02-05T13:01:31.688Z,7.78
2023-02-05T13:04:01.532Z,7.85
2023-02-05T13:06:43.186Z,7.38
2023-02-05T13:09:19.359Z,7.72
2023-02-05T13:12:07.211Z,8.45
2023-02-05T13:14:47.679Z,9.45
2023-02-05T13:17:20.376Z,9.50
2023-02-05T13:19:57.193Z,11.48
2023-02-05T13:23:09.610Z,13.70
2023-02-05T13:25:40.213Z,11.18
2023-02-05T13:28:42.590Z,12.48
2023-02-05T13:31:40.692Z,13.10
2023-02-05T13:34:09.907Z,13.23
2023-02-05T13:37:01.429Z,13.68
2023-02-05T13:39:48.698Z,14.03
2023-02-05T13:43:11.564Z,13.23
2023-02-05T13:48:29.431Z,12.43
2023-02-05T13:51:38.890Z,14.73
2023-02-05T13:54:23.487Z,14.87
2023-02-05T13:57:18.267Z,15.00
2023-02-05T13:59:52.875Z,13.85
2023-02-05T14:02:33.666Z,15.43
2023-02-05T14:05:02.743Z,16.15
2023-02-05T14:07:33.916Z,15.25
2023-02-05T14:10:02.616Z,15.10
2023-02-05T14:12:34.039Z,15.05
2023-02-05T14:15:19.669Z,14.40
2023-02-05T14:17:48.498Z,15.90
2023-02-05T14:20:35.497Z,16.00
2023-02-05T14:23:11.595Z,13.68
2023-02-05T14:25:45.953Z,15.75
2023-02-05T14:28:15.834Z,14.38
2023-02-05T14:30:49.126Z,16.00
2023-02-05T14:33:37.437Z,16.02
2023-02-05T14:36:25.000Z,14.43
2023-02-05T14:38:51.616Z,15.80
2023-02-05T14:41:21.965Z,16.17
2023-02-05T14:44:04.678Z,15.35
2023-02-05T14:46:39.741Z,15.00
2023-02-05T14:49:19.085Z,14.27
2023-02-05T14:52:25.384Z,15.52
2023-02-05T14:54:59.756Z,16.77
2023-02-05T14:57:51.677Z,14.68
2023-02-05T15:00:25.737Z,17.10
2023-02-05T15:03:16.525Z,22.35
2023-02-05T15:05:48.840Z,25.85
2023-02-05T15:08:24.772Z,20.63
2023-02-05T15:11:04.331Z,17.27
2023-02-05T15:13:32.093Z,17.20
2023-02-05T15:16:16.986Z,16.48
2023-02-05T15:18:52.878Z,17.20
2023-02-05T15:21:33.304Z,17.48
2023-02-05T15:24:13.637Z,17.80
2023-02-05T15:27:15.419Z,16.65
2023-02-05T15:29:47.267Z,16.70
2023-02-05T15:32:23.918Z,17.75
2023-02-05T15:35:07.434Z,16.27
2023-02-05T15:37:43.724Z,20.83
2023-02-05T15:40:26.890Z,17.58
2023-02-05T15:42:58.479Z,17.90
2023-02-05T15:45:29.652Z,17.15
2023-02-05T15:48:13.010Z,18.10
2023-02-05T15:50:52.754Z,17.45
2023-02-05T15:53:32.908Z,16.83
2023-02-05T15:56:19.265Z,17.88
2023-02-05T15:58:51.923Z,17.98
2023-02-05T16:01:30.644Z,18.23
2023-02-05T16:03:57.751Z,15.93
2023-02-05T16:06:27.029Z,16.65
2023-02-05T16:08:54.079Z,14.50
2023-02-05T16:11:35.000Z,13.70
2023-02-05T16:14:13.551Z,16.25
2023-02-05T16:16:47.226Z,14.77
2023-02-05T16:19:21.116Z,16.73
2023-02-05T16:21:59.040Z,16.35
2023-02-05T16:24:33.406Z,15.68
2023-02-05T16:27:09.734Z,17.33
2023-02-05T16:29:48.632Z,14.75
2023-02-05T16:32:38.286Z,17.02
2023-02-05T16:35:07.914Z,16.42
2023-02-05T16:37:39.772Z,17.95
2023-02-05T16:40:09.175Z,16.45
2023-02-05T16:42:44.076Z,16.45
2023-02-05T16:45:10.770Z,18.27
2023-02-05T16:47:37.800Z,17.02
2023-02-05T16:50:32.985Z,19.08
2023-02-05T16:52:59.845Z,18.92
2023-02-05T16:55:30.852Z,19.67
2023-02-05T16:58:05.742Z,18.48
2023-02-05T17:00:34.286Z,17.35
2023-02-05T17:03:17.458Z,18.15
2023-02-05T17:05:44.593Z,17.08
2023-02-05T17:08:12.741Z,18.25
2023-02-05T17:10:48.974Z,22.88
2023-02-05T17:13:26.709Z,17.70
2023-02-05T17:15:53.541Z,20.58
2023-02-05T17:18:21.777Z,18.02
2023-02-05T17:20:48.887Z,19.33
2023-02-05T17:23:17.030Z,19.08
2023-02-05T17:25:46.723Z,21.40
2023-02-05T17:28:17.093Z,18.42
2023-02-05T17:30:45.623Z,20.60
2023-02-05T17:33:19.548Z,25.00
2023-02-05T17:35:46.395Z,20.10
2023-02-05T17:38:13.592Z,20.17
2023-02-05T17:40:40.433Z,19.73
2023-02-05T17:43:07.111Z,18.17
2023-02-05T17:45:39.507Z,17.73
2023-02-05T17:48:07.909Z,19.60
2023-02-05T17:50:35.856Z,16.25
2023-02-05T17:53:03.424Z,16.63
2023-02-05T17:55:30.684Z,15.73
2023-02-05T17:57:57.469Z,16.30
2023-02-05T18:00:26.758Z,14.57
2023-02-05T18:02:53.696Z,16.17
2023-02-05T18:05:21.014Z,15.77
2023-02-05T18:07:54.850Z,14.60
2023-02-05T18:10:24.941Z,15.82
2023-02-05T18:12:52.226Z,16.05
2023-02-05T18:15:19.432Z,14.80
2023-02-05T18:17:46.373Z,15.18
2023-02-05T18:20:14.698Z,17.42
2023-02-05T18:22:41.506Z,18.25
2023-02-05T18:25:08.453Z,15.70
2023-02-05T18:27:35.215Z,15.65
2023-02-05T18:30:02.056Z,15.35
2023-02-05T18:32:29.045Z,15.38
2023-02-05T18:34:55.736Z,15.82
2023-02-05T18:37:22.493Z,18.35
2023-02-05T18:39:50.688Z,16.95
2023-02-05T18:42:17.563Z,19.17
2023-02-05T18:44:44.233Z,18.48
2023-02-05T18:47:11.806Z,21.35
2023-02-05T18:49:39.355Z,20.67
2023-02-05T18:52:07.259Z,20.27
2023-02-05T18:54:34.415Z,18.75
2023-02-05T18:57:01.246Z,19.38
2023-02-05T18:59:27.939Z,20.02
2023-02-05T19:01:54.681Z,18.58
2023-02-05T19:04:21.452Z,19.23
2023-02-05T19:06:53.676Z,19.17
2023-02-05T19:11:48.835Z,17.00
2023-02-05T19:14:17.351Z,19.65
2023-02-05T19:16:44.804Z,18.80
2023-02-05T19:19:14.279Z,18.52
2023-02-05T19:21:42.270Z,17.55
2023-02-05T19:24:10.431Z,18.73
2023-02-05T19:26:38.678Z,18.50
2023-02-05T19:29:07.861Z,20.73
2023-02-05T19:31:36.749Z,19.38
2023-02-05T19:34:04.052Z,19.00
2023-02-05T19:36:31.515Z,17.17
2023-02-05T19:39:00.263Z,17.92
2023-02-05T19:41:27.783Z,18.90
2023-02-05T19:44:00.107Z,17.23
2023-02-05T19:46:31.311Z,18.00
2023-02-05T19:49:02.412Z,18.25
2023-02-05T19:51:29.326Z,19.02
2023-02-05T19:53:57.859Z,18.75
2023-02-05T19:56:25.054Z,18.55
2023-02-05T19:58:53.662Z,17.33
2023-02-05T20:01:24.876Z,18.48
2023-02-05T20:03:53.432Z,19.30
2023-02-05T20:06:21.889Z,17.77
2023-02-05T20:08:48.589Z,20.08
2023-02-05T20:11:16.166Z,17.65
2023-02-05T20:13:43.369Z,16.63
2023-02-05T20:16:16.450Z,16.80
2023-02-05T20:18:44.337Z,17.05
2023-02-05T20:21:18.450Z,16.35
2023-02-05T20:23:46.202Z,17.17
2023-02-05T20:26:14.352Z,16.10
2023-02-05T20:29:01.088Z,14.93
2023-02-05T20:31:35.176Z,16.55
2023-02-05T20:34:06.768Z,16.00
2023-02-05T20:36:34.888Z,15.75
2023-02-05T20:39:05.394Z,47.05
2023-02-05T20:41:32.636Z,17.70
2023-02-05T20:43:59.486Z,17.48
2023-02-05T20:46:26.601Z,18.98
2023-02-05T20:48:53.900Z,15.45
2023-02-05T20:51:22.753Z,14.73
2023-02-05T20:53:49.811Z,15.50
2023-02-05T20:56:20.246Z,14.57
2023-02-05T20:58:47.440Z,14.80
2023-02-05T21:01:18.924Z,20.48
2023-02-05T21:03:48.570Z,14.85
2023-02-05T21:06:18.922Z,16.40
2023-02-05T21:08:47.234Z,17.38
2023-02-05T21:11:14.983Z,17.00
2023-02-05T21:13:43.041Z,17.67
2023-02-05T21:16:10.305Z,15.30
2023-02-05T21:18:38.361Z,16.92
2023-02-05T21:21:10.793Z,18.08
2023-02-05T21:23:37.513Z,18.75
2023-02-05T21:26:05.136Z,17.80
2023-02-05T21:28:32.657Z,18.08
2023-02-05T21:31:08.432Z,15.98
2023-02-05T21:33:35.616Z,17.33
2023-02-05T21:36:07.599Z,17.35
2023-02-05T21:38:35.444Z,16.80
2023-02-05T21:41:15.138Z,15.85
2023-02-05T21:43:42.062Z,15.63
2023-02-05T21:46:11.813Z,15.32
2023-02-05T21:48:38.513Z,14.55
2023-02-05T21:51:10.933Z,18.95
2023-02-05T21:53:37.695Z,14.20
2023-02-05T21:56:06.380Z,15.30
2023-02-05T21:58:34.713Z,15.45
2023-02-05T22:01:29.194Z,14.70
2023-02-05T22:06:42.082Z,14.45
2023-02-05T22:09:11.519Z,20.88
2023-02-05T22:11:41.337Z,16.05
2023-02-05T22:14:09.035Z,17.15
2023-02-05T22:16:36.299Z,15.82
2023-02-05T22:19:04.568Z,15.57
2023-02-05T22:21:34.697Z,14.90
2023-02-05T22:24:02.636Z,13.98
2023-02-05T22:26:33.101Z,14.02
2023-02-05T22:29:01.011Z,13.50
2023-02-05T22:31:28.731Z,15.02
2023-02-05T22:33:55.962Z,14.25
2023-02-05T22:36:27.934Z,12.07
2023-02-05T22:38:55.328Z,13.57
2023-02-05T22:41:31.377Z,13.23
2023-02-05T22:43:59.753Z,12.02
2023-02-05T22:46:32.126Z,12.98
2023-02-05T22:49:01.352Z,12.75
2023-02-05T22:51:31.542Z,13.20
2023-02-05T22:53:59.307Z,14.77
2023-02-05T22:56:26.966Z,15.80
2023-02-05T22:58:54.285Z,14.93
2023-02-05T23:01:27.897Z,15.57
2023-02-05T23:03:55.449Z,13.85
2023-02-05T23:06:33.621Z,14.07
2023-02-05T23:09:16.350Z,14.15
2023-02-05T23:11:43.906Z,12.73
2023-02-05T23:14:12.660Z,12.95
2023-02-05T23:16:41.594Z,12.05
2023-02-05T23:19:13.327Z,12.75
2023-02-05T23:21:40.440Z,13.20
2023-02-05T23:24:07.398Z,13.15
2023-02-05T23:26:41.778Z,12.32
2023-02-05T23:29:11.014Z,12.55
2023-02-05T23:31:38.169Z,12.43
2023-02-05T23:34:05.315Z,14.52
2023-02-05T23:36:32.185Z,14.90
2023-02-05T23:38:59.186Z,16.35
2023-02-05T23:41:39.554Z,13.70
2023-02-05T23:44:12.255Z,13.60
2023-02-05T23:46:40.264Z,14.77
2023-02-05T23:49:07.286Z,13.13
2023-02-05T23:51:34.150Z,14.10
2023-02-05T23:54:01.118Z,15.52
2023-02-05T23:56:28.022Z,14.02
2023-02-05T23:58:54.909Z,15.35
